createdAt,value
2022-12-24T00:01:37.977Z,8.73
2022-12-24T00:04:06.661Z,8.75
2022-12-24T00:06:35.265Z,8.78
2022-12-24T00:09:03.793Z,8.80
2022-12-24T00:11:32.271Z,8.74
2022-12-24T00:14:02.149Z,8.80
2022-12-24T00:16:30.642Z,8.80
2022-12-24T00:18:59.050Z,8.70
2022-12-24T00:21:27.569Z,8.75
2022-12-24T00:23:55.973Z,8.72
2022-12-24T00:26:24.516Z,8.62
2022-12-24T00:28:53.090Z,8.62
2022-12-24T00:31:23.127Z,8.65
2022-12-24T00:33:51.813Z,8.63
2022-12-24T00:36:21.230Z,8.66
2022-12-24T00:38:49.656Z,8.62
2022-12-24T00:41:29.422Z,8.60
2022-12-24T00:43:59.463Z,8.60
2022-12-24T00:46:31.312Z,8.61
2022-12-24T00:48:59.923Z,8.62
2022-12-24T00:51:28.762Z,8.64
2022-12-24T00:53:57.398Z,8.59
2022-12-24T00:56:26.150Z,8.61
2022-12-24T00:58:55.397Z,8.57
2022-12-24T01:01:24.398Z,8.58
2022-12-24T01:04:15.874Z,8.61
2022-12-24T01:06:43.576Z,8.61
2022-12-24T01:09:12.346Z,8.60
2022-12-24T01:11:40.780Z,8.59
2022-12-24T01:14:09.239Z,8.59
2022-12-24T01:16:37.723Z,8.57
2022-12-24T01:19:07.567Z,8.58
2022-12-24T01:21:36.029Z,8.56
2022-12-24T01:24:04.592Z,8.56
2022-12-24T01:26:33.018Z,8.55
2022-12-24T01:29:01.560Z,8.55
2022-12-24T01:31:30.021Z,8.51
2022-12-24T01:33:58.820Z,8.56
2022-12-24T01:36:28.868Z,8.61
2022-12-24T01:38:57.433Z,8.60
2022-12-24T01:41:43.549Z,8.61
2022-12-24T01:44:33.514Z,8.63
2022-12-24T01:47:10.105Z,8.59
2022-12-24T01:49:43.686Z,8.63
2022-12-24T01:52:18.332Z,8.63
2022-12-24T01:54:52.104Z,8.64
2022-12-24T01:57:25.117Z,8.64
2022-12-24T01:59:58.142Z,8.67
2022-12-24T02:02:27.671Z,8.65
2022-12-24T02:05:03.362Z,8.66
2022-12-24T02:07:33.824Z,8.65
2022-12-24T02:10:04.102Z,8.58
2022-12-24T02:12:36.641Z,8.54
2022-12-24T02:15:06.885Z,8.52
2022-12-24T02:17:44.328Z,8.49
2022-12-24T02:20:48.978Z,8.45
2022-12-24T02:23:40.946Z,8.34
2022-12-24T02:26:28.660Z,8.33
2022-12-24T02:29:23.760Z,8.31
2022-12-24T02:32:00.583Z,8.20
2022-12-24T02:34:35.010Z,8.25
2022-12-24T02:37:08.298Z,8.28
2022-12-24T02:39:44.472Z,8.29
2022-12-24T02:42:17.181Z,8.30
2022-12-24T02:44:50.682Z,8.29
2022-12-24T02:47:23.386Z,8.30
2022-12-24T02:49:51.926Z,8.30
2022-12-24T02:52:34.075Z,8.30
2022-12-24T02:55:07.610Z,8.24
2022-12-24T02:57:56.007Z,8.26
2022-12-24T03:00:25.585Z,8.28
2022-12-24T03:03:21.136Z,8.32
2022-12-24T03:05:53.085Z,8.38
2022-12-24T03:08:33.958Z,8.39
2022-12-24T03:11:06.856Z,8.36
2022-12-24T03:13:35.983Z,8.32
2022-12-24T03:16:07.846Z,8.38
2022-12-24T03:18:40.266Z,8.40
2022-12-24T03:21:13.577Z,8.42
2022-12-24T03:23:42.360Z,8.45
2022-12-24T03:26:13.665Z,8.45
2022-12-24T03:28:43.788Z,8.41
2022-12-24T03:31:12.775Z,8.45
2022-12-24T03:33:43.156Z,8.46
2022-12-24T03:36:12.285Z,8.47
2022-12-24T03:38:41.162Z,8.47
2022-12-24T03:41:09.957Z,8.46
2022-12-24T03:43:38.652Z,8.51
2022-12-24T03:46:08.186Z,8.50
2022-12-24T03:48:37.374Z,8.52
2022-12-24T03:51:07.639Z,8.54
2022-12-24T03:53:36.168Z,8.56
2022-12-24T03:56:04.896Z,8.56
2022-12-24T03:58:33.277Z,8.57
2022-12-24T04:01:01.832Z,8.56
2022-12-24T04:03:30.481Z,8.57
2022-12-24T04:06:04.260Z,8.60
2022-12-24T04:08:34.485Z,8.62
2022-12-24T04:11:09.352Z,8.63
2022-12-24T04:13:38.725Z,8.64
2022-12-24T04:16:10.072Z,8.70
2022-12-24T04:18:39.512Z,8.77
2022-12-24T04:21:08.585Z,8.86
2022-12-24T04:23:39.628Z,8.92
2022-12-24T04:26:10.179Z,8.92
2022-12-24T04:28:39.356Z,8.86
2022-12-24T04:31:09.784Z,8.88
2022-12-24T04:33:38.789Z,8.90
2022-12-24T04:36:08.408Z,8.97
2022-12-24T04:38:38.462Z,9.02
2022-12-24T04:41:08.857Z,9.05
2022-12-24T04:43:37.541Z,9.09
2022-12-24T04:46:08.022Z,9.03
2022-12-24T04:48:36.878Z,9.16
2022-12-24T04:51:06.445Z,9.20
2022-12-24T04:53:35.810Z,9.27
2022-12-24T04:56:06.394Z,9.28
2022-12-24T04:58:36.966Z,9.33
2022-12-24T05:01:06.549Z,9.35
2022-12-24T05:03:35.908Z,9.36
2022-12-24T05:06:04.745Z,9.38
2022-12-24T05:08:34.035Z,9.38
2022-12-24T05:11:03.811Z,9.42
2022-12-24T05:13:40.676Z,9.46
2022-12-24T05:16:15.024Z,9.46
2022-12-24T05:18:43.700Z,9.49
2022-12-24T05:21:14.890Z,9.49
2022-12-24T05:24:00.909Z,9.56
2022-12-24T05:26:32.349Z,9.59
2022-12-24T05:29:03.684Z,9.63
2022-12-24T05:31:34.868Z,9.65
2022-12-24T05:34:03.834Z,9.67
2022-12-24T05:36:32.801Z,9.63
2022-12-24T05:39:01.725Z,9.67
2022-12-24T05:41:30.215Z,9.66
2022-12-24T05:43:58.693Z,9.68
2022-12-24T05:46:28.707Z,9.68
2022-12-24T05:48:57.271Z,9.70
2022-12-24T05:51:26.076Z,9.69
2022-12-24T05:53:54.641Z,9.68
2022-12-24T05:56:25.176Z,9.69
2022-12-24T05:58:55.148Z,9.78
2022-12-24T06:01:24.525Z,9.76
2022-12-24T06:03:54.997Z,9.72
2022-12-24T06:06:25.254Z,9.69
2022-12-24T06:08:55.156Z,9.72
2022-12-24T06:11:25.772Z,9.71
2022-12-24T06:13:54.982Z,9.72
2022-12-24T06:16:24.971Z,9.70
2022-12-24T06:18:55.721Z,9.72
2022-12-24T06:21:24.378Z,9.72
2022-12-24T06:23:52.950Z,9.75
2022-12-24T06:26:24.205Z,9.73
2022-12-24T06:28:53.420Z,9.72
2022-12-24T06:31:24.886Z,9.69
2022-12-24T06:33:55.539Z,9.71
2022-12-24T06:36:26.506Z,9.72
2022-12-24T06:38:56.232Z,9.70
2022-12-24T06:41:25.431Z,9.72
2022-12-24T06:43:54.908Z,9.66
2022-12-24T06:46:23.718Z,9.66
2022-12-24T06:48:52.474Z,9.64
2022-12-24T06:51:22.529Z,9.61
2022-12-24T06:53:51.931Z,9.64
2022-12-24T06:56:23.703Z,9.67
2022-12-24T06:58:52.336Z,9.67
2022-12-24T07:01:22.299Z,9.65
2022-12-24T07:03:51.174Z,9.63
2022-12-24T07:06:25.468Z,9.69
2022-12-24T07:08:53.955Z,9.66
2022-12-24T07:11:22.832Z,9.66
2022-12-24T07:13:51.251Z,9.67
2022-12-24T07:16:19.838Z,9.58
2022-12-24T07:18:50.168Z,9.62
2022-12-24T07:21:18.563Z,9.66
2022-12-24T07:23:51.089Z,9.64
2022-12-24T07:26:19.637Z,9.67
2022-12-24T07:28:48.070Z,9.66
2022-12-24T07:31:16.512Z,9.69
2022-12-24T07:33:44.914Z,9.67
2022-12-24T07:36:20.281Z,9.66
2022-12-24T07:38:50.483Z,9.70
2022-12-24T07:41:18.930Z,9.67
2022-12-24T07:43:47.424Z,9.63
2022-12-24T07:46:15.980Z,9.65
2022-12-24T07:48:44.527Z,9.67
2022-12-24T07:51:12.883Z,9.63
2022-12-24T07:53:47.889Z,9.69
2022-12-24T07:56:18.476Z,9.67
2022-12-24T07:58:46.991Z,9.64
2022-12-24T08:01:15.482Z,9.63
2022-12-24T08:03:44.114Z,9.64
2022-12-24T08:06:13.327Z,9.64
2022-12-24T08:08:41.863Z,9.61
2022-12-24T08:11:10.528Z,9.56
2022-12-24T08:13:40.665Z,9.60
2022-12-24T08:16:09.214Z,9.57
2022-12-24T08:18:37.785Z,9.55
2022-12-24T08:21:08.742Z,9.57
2022-12-24T08:23:37.339Z,9.57
2022-12-24T08:26:08.730Z,9.55
2022-12-24T08:28:37.208Z,9.53
2022-12-24T08:31:08.274Z,9.51
2022-12-24T08:33:36.957Z,9.51
2022-12-24T08:36:05.841Z,9.52
2022-12-24T08:38:34.431Z,9.51
2022-12-24T08:41:02.944Z,9.40
2022-12-24T08:43:31.800Z,9.49
2022-12-24T08:46:05.165Z,9.48
2022-12-24T08:48:35.835Z,9.47
2022-12-24T08:51:09.144Z,9.45
2022-12-24T08:53:38.189Z,9.43
2022-12-24T08:56:09.132Z,9.43
2022-12-24T08:58:38.197Z,9.42
2022-12-24T09:01:13.872Z,9.39
2022-12-24T09:03:44.596Z,9.38
2022-12-24T09:06:13.603Z,9.35
2022-12-24T09:08:42.066Z,9.35
2022-12-24T09:11:12.854Z,9.33
2022-12-24T09:13:41.788Z,9.32
2022-12-24T09:16:11.278Z,9.32
2022-12-24T09:18:40.566Z,9.32
2022-12-24T09:21:14.668Z,9.30
2022-12-24T09:23:44.566Z,9.30
2022-12-24T09:26:16.808Z,9.27
2022-12-24T09:28:45.324Z,9.27
2022-12-24T09:31:14.952Z,9.29
2022-12-24T09:33:45.161Z,9.28
2022-12-24T09:36:15.777Z,9.26
2022-12-24T09:38:44.801Z,9.29
2022-12-24T09:41:15.193Z,9.28
2022-12-24T09:43:49.175Z,9.31
2022-12-24T09:46:26.579Z,9.30
2022-12-24T09:48:59.330Z,9.27
2022-12-24T09:51:35.657Z,9.26
2022-12-24T09:54:07.414Z,9.22
2022-12-24T09:56:40.503Z,9.18
2022-12-24T09:59:15.850Z,9.17
2022-12-24T10:01:44.716Z,9.18
2022-12-24T10:04:15.922Z,9.18
2022-12-24T10:06:53.793Z,9.07
2022-12-24T10:09:32.717Z,9.17
2022-12-24T10:12:07.745Z,9.08
2022-12-24T10:14:52.770Z,9.15
2022-12-24T10:17:35.163Z,9.16
2022-12-24T10:20:22.903Z,8.98
2022-12-24T10:22:58.600Z,9.07
2022-12-24T10:25:32.321Z,9.09
2022-12-24T10:28:04.077Z,9.07
2022-12-24T10:30:32.607Z,9.10
2022-12-24T10:33:01.276Z,9.09
2022-12-24T10:35:33.926Z,9.06
2022-12-24T10:38:04.657Z,9.10
2022-12-24T10:40:38.796Z,9.04
2022-12-24T10:43:16.188Z,9.10
2022-12-24T10:45:48.168Z,9.10
2022-12-24T10:48:24.490Z,9.12
2022-12-24T10:50:57.501Z,9.08
2022-12-24T10:53:35.709Z,9.04
2022-12-24T10:56:07.052Z,9.03
2022-12-24T10:58:36.206Z,9.04
2022-12-24T11:01:06.016Z,9.04
2022-12-24T11:03:36.471Z,9.01
2022-12-24T11:06:10.121Z,8.96
2022-12-24T11:08:43.419Z,8.95
2022-12-24T11:11:15.195Z,8.93
2022-12-24T11:13:46.667Z,8.95
2022-12-24T11:16:22.701Z,8.93
2022-12-24T11:18:53.735Z,8.92
2022-12-24T11:21:27.328Z,8.90
2022-12-24T11:24:00.887Z,8.95
2022-12-24T11:26:31.979Z,8.99
2022-12-24T11:29:14.924Z,8.97
2022-12-24T11:31:44.099Z,9.00
2022-12-24T11:34:34.062Z,9.02
2022-12-24T11:37:14.928Z,9.02
2022-12-24T11:39:49.068Z,9.03
2022-12-24T11:42:35.583Z,9.01
2022-12-24T11:45:07.324Z,9.02
2022-12-24T11:47:41.472Z,8.98
2022-12-24T11:50:28.653Z,9.05
2022-12-24T11:53:08.800Z,9.06
2022-12-24T11:55:46.688Z,9.10
2022-12-24T11:58:27.091Z,9.11
2022-12-24T12:01:06.579Z,9.12
2022-12-24T12:03:43.808Z,9.10
2022-12-24T12:06:34.708Z,9.19
2022-12-24T12:09:07.070Z,9.19
2022-12-24T12:11:40.052Z,9.22
2022-12-24T12:14:17.842Z,9.21
2022-12-24T12:17:04.211Z,9.25
2022-12-24T12:19:40.941Z,9.25
2022-12-24T12:22:18.074Z,9.28
2022-12-24T12:24:53.124Z,9.30
2022-12-24T12:27:29.782Z,9.33
2022-12-24T12:30:02.886Z,9.35
2022-12-24T12:32:44.936Z,9.38
2022-12-24T12:35:24.525Z,9.41
2022-12-24T12:37:58.480Z,9.34
2022-12-24T12:40:48.198Z,9.43
2022-12-24T12:43:30.516Z,9.44
2022-12-24T12:46:08.338Z,9.47
2022-12-24T12:48:54.560Z,9.51
2022-12-24T12:51:34.125Z,9.56
2022-12-24T12:54:22.472Z,9.60
2022-12-24T12:56:56.584Z,9.64
2022-12-24T12:59:34.500Z,9.68
2022-12-24T13:02:14.052Z,9.67
2022-12-24T13:05:15.562Z,9.66
2022-12-24T13:08:00.941Z,9.68
2022-12-24T13:10:58.694Z,9.69
2022-12-24T13:13:52.235Z,9.71
2022-12-24T13:16:53.922Z,9.73
2022-12-24T13:19:44.523Z,9.74
2022-12-24T13:22:18.078Z,9.75
2022-12-24T13:24:52.264Z,9.78
2022-12-24T13:27:25.290Z,9.77
2022-12-24T13:29:57.088Z,9.74
2022-12-24T13:32:57.341Z,9.69
2022-12-24T13:35:37.539Z,9.65
2022-12-24T13:38:43.970Z,9.63
2022-12-24T13:41:58.222Z,9.62
2022-12-24T13:44:39.597Z,9.60
2022-12-24T13:47:31.726Z,9.64
2022-12-24T13:50:22.806Z,9.68
2022-12-24T13:52:54.171Z,9.66
2022-12-24T13:55:23.568Z,9.68
2022-12-24T13:57:58.807Z,9.62
2022-12-24T14:00:32.299Z,9.64
2022-12-24T14:03:06.168Z,9.65
2022-12-24T14:05:40.390Z,9.69
2022-12-24T14:08:12.801Z,9.71
2022-12-24T14:10:43.714Z,9.71
2022-12-24T14:13:45.286Z,9.72
2022-12-24T14:16:16.532Z,9.78
2022-12-24T14:18:50.075Z,9.79
2022-12-24T14:21:25.225Z,9.81
2022-12-24T14:23:57.162Z,9.83
2022-12-24T14:26:30.523Z,9.80
2022-12-24T14:29:01.428Z,9.74
2022-12-24T14:31:29.971Z,9.73
2022-12-24T14:34:08.401Z,9.76
2022-12-24T14:36:38.718Z,9.74
2022-12-24T14:39:10.629Z,9.70
2022-12-24T14:41:49.214Z,9.69
2022-12-24T14:44:35.523Z,9.62
2022-12-24T14:47:16.902Z,9.57
2022-12-24T14:50:01.809Z,9.55
2022-12-24T14:53:04.614Z,9.58
2022-12-24T14:55:41.206Z,9.59
2022-12-24T14:58:25.700Z,9.56
2022-12-24T15:00:56.113Z,9.56
2022-12-24T15:03:26.097Z,9.55
2022-12-24T15:05:57.998Z,9.46
2022-12-24T15:08:34.240Z,9.48
2022-12-24T15:11:06.477Z,9.44
2022-12-24T15:13:38.555Z,9.37
2022-12-24T15:16:09.768Z,9.39
2022-12-24T15:18:43.327Z,9.36
2022-12-24T15:21:19.935Z,9.31
2022-12-24T15:23:51.892Z,9.32
2022-12-24T15:26:27.102Z,9.31
2022-12-24T15:29:02.677Z,9.27
2022-12-24T15:31:33.023Z,9.25
2022-12-24T15:34:01.758Z,9.24
2022-12-24T15:36:33.090Z,9.21
2022-12-24T15:39:06.798Z,9.19
2022-12-24T15:41:59.615Z,9.19
2022-12-24T15:44:29.469Z,9.24
2022-12-24T15:47:00.641Z,9.27
2022-12-24T15:49:30.767Z,9.26
2022-12-24T15:52:06.003Z,9.28
2022-12-24T15:54:38.283Z,9.28
2022-12-24T15:57:23.664Z,9.30
2022-12-24T15:59:54.685Z,9.30
2022-12-24T16:02:39.444Z,9.29
2022-12-24T16:05:35.971Z,9.31
2022-12-24T16:08:10.373Z,9.31
2022-12-24T16:10:43.060Z,9.27
2022-12-24T16:13:17.724Z,9.29
2022-12-24T16:15:49.943Z,9.27
2022-12-24T16:18:31.459Z,9.27
2022-12-24T16:21:00.670Z,9.24
2022-12-24T16:23:36.239Z,9.19
2022-12-24T16:26:06.404Z,9.17
2022-12-24T16:28:35.029Z,9.01
2022-12-24T16:31:03.817Z,8.95
2022-12-24T16:33:32.327Z,8.95
2022-12-24T16:36:00.859Z,9.01
2022-12-24T16:38:49.281Z,9.06
2022-12-24T16:41:19.151Z,9.10
2022-12-24T16:43:52.584Z,9.05
2022-12-24T16:46:21.073Z,9.10
2022-12-24T16:48:50.509Z,9.07
2022-12-24T16:51:18.936Z,9.02
2022-12-24T16:53:47.323Z,8.99
2022-12-24T16:56:17.526Z,8.95
2022-12-24T16:58:47.429Z,8.92
2022-12-24T17:01:16.098Z,8.88
2022-12-24T17:03:44.733Z,8.88
2022-12-24T17:06:13.158Z,8.89
2022-12-24T17:08:41.606Z,8.86
2022-12-24T17:11:10.055Z,8.74
2022-12-24T17:13:38.659Z,8.85
2022-12-24T17:16:09.237Z,8.88
2022-12-24T17:18:37.732Z,8.88
2022-12-24T17:21:07.191Z,8.93
2022-12-24T17:23:35.699Z,8.94
2022-12-24T17:26:10.671Z,9.00
2022-12-24T17:28:42.037Z,9.03
2022-12-24T17:31:14.070Z,9.06
2022-12-24T17:33:42.616Z,9.09
2022-12-24T17:36:11.894Z,9.06
2022-12-24T17:38:40.373Z,9.06
2022-12-24T17:41:12.531Z,9.07
2022-12-24T17:43:40.948Z,9.06
2022-12-24T17:46:11.230Z,9.14
2022-12-24T17:48:41.092Z,9.14
2022-12-24T17:51:11.127Z,9.11
2022-12-24T17:53:41.263Z,9.12
2022-12-24T17:56:16.310Z,9.08
2022-12-24T17:58:46.536Z,9.09
2022-12-24T18:01:16.740Z,9.07
2022-12-24T18:03:47.646Z,9.06
2022-12-24T18:06:16.979Z,9.05
2022-12-24T18:08:47.014Z,9.03
2022-12-24T18:11:17.459Z,9.06
2022-12-24T18:13:46.918Z,9.05
2022-12-24T18:16:18.518Z,8.93
2022-12-24T18:18:49.073Z,8.81
2022-12-24T18:21:19.231Z,8.77
2022-12-24T18:23:49.200Z,8.84
2022-12-24T18:26:18.929Z,8.80
2022-12-24T18:28:48.659Z,8.80
2022-12-24T18:31:19.104Z,8.83
2022-12-24T18:33:50.332Z,8.85
2022-12-24T18:36:19.312Z,8.86
2022-12-24T18:38:48.229Z,8.90
2022-12-24T18:41:18.641Z,8.91
2022-12-24T18:43:47.317Z,8.93
2022-12-24T18:46:18.992Z,8.96
2022-12-24T18:48:49.268Z,8.98
2022-12-24T18:51:18.831Z,8.99
2022-12-24T18:53:47.335Z,8.95
2022-12-24T18:56:17.835Z,8.85
2022-12-24T18:58:47.217Z,8.86
2022-12-24T19:01:18.087Z,8.94
2022-12-24T19:03:49.539Z,8.99
2022-12-24T19:06:18.246Z,9.01
2022-12-24T19:08:57.130Z,9.04
2022-12-24T19:11:27.916Z,9.04
2022-12-24T19:13:58.290Z,9.02
2022-12-24T19:16:27.812Z,9.08
2022-12-24T19:18:58.424Z,9.11
2022-12-24T19:21:27.062Z,9.12
2022-12-24T19:23:55.545Z,9.13
2022-12-24T19:26:24.227Z,9.12
2022-12-24T19:28:53.296Z,9.13
2022-12-24T19:31:25.654Z,9.07
2022-12-24T19:33:56.601Z,9.14
2022-12-24T19:36:29.024Z,9.12
2022-12-24T19:38:57.608Z,9.16
2022-12-24T19:41:28.222Z,9.16
2022-12-24T19:43:58.987Z,9.10
2022-12-24T19:46:29.813Z,9.12
2022-12-24T19:49:00.585Z,9.12
2022-12-24T19:51:31.024Z,8.96
2022-12-24T19:54:00.954Z,9.09
2022-12-24T19:56:33.014Z,8.96
2022-12-24T19:59:02.846Z,9.05
2022-12-24T20:01:33.362Z,9.06
2022-12-24T20:04:03.895Z,9.05
2022-12-24T20:06:36.550Z,9.02
2022-12-24T20:09:08.642Z,9.04
2022-12-24T20:11:37.165Z,9.04
2022-12-24T20:14:07.472Z,9.03
2022-12-24T20:16:37.035Z,9.03
2022-12-24T20:19:07.755Z,9.05
2022-12-24T20:21:38.217Z,9.04
2022-12-24T20:24:07.801Z,9.06
2022-12-24T20:26:36.854Z,9.06
2022-12-24T20:29:06.630Z,9.06
2022-12-24T20:31:35.745Z,9.06
2022-12-24T20:34:05.712Z,9.05
2022-12-24T20:36:34.877Z,9.05
2022-12-24T20:39:06.009Z,9.03
2022-12-24T20:41:34.908Z,9.02
2022-12-24T20:44:04.822Z,9.03
2022-12-24T20:46:34.990Z,8.97
2022-12-24T20:49:03.777Z,9.00
2022-12-24T20:51:32.657Z,9.00
2022-12-24T20:54:02.381Z,8.99
2022-12-24T20:56:32.694Z,8.97
2022-12-24T20:59:02.405Z,8.94
2022-12-24T21:01:31.166Z,8.92
2022-12-24T21:04:04.953Z,8.91
2022-12-24T21:06:34.287Z,8.89
2022-12-24T21:09:03.127Z,8.83
2022-12-24T21:11:49.504Z,8.88
2022-12-24T21:14:19.902Z,8.88
2022-12-24T21:16:48.943Z,8.87
2022-12-24T21:19:20.975Z,8.86
2022-12-24T21:21:49.670Z,8.84
2022-12-24T21:24:18.642Z,8.82
2022-12-24T21:26:48.678Z,8.84
2022-12-24T21:29:17.108Z,8.83
2022-12-24T21:31:46.056Z,8.80
2022-12-24T21:34:15.120Z,8.81
2022-12-24T21:36:43.524Z,8.79
2022-12-24T21:39:13.116Z,8.75
2022-12-24T21:41:41.589Z,8.78
2022-12-24T21:44:11.515Z,8.73
2022-12-24T21:46:40.280Z,8.70
2022-12-24T21:49:28.891Z,8.70
2022-12-24T21:51:57.531Z,8.70
2022-12-24T21:54:27.820Z,8.66
2022-12-24T21:57:16.011Z,8.64
2022-12-24T21:59:46.516Z,8.60
2022-12-24T22:02:16.748Z,8.54
2022-12-24T22:04:46.623Z,8.45
2022-12-24T22:07:45.896Z,8.45
2022-12-24T22:10:33.339Z,8.41
2022-12-24T22:13:06.570Z,8.39
2022-12-24T22:15:38.377Z,8.40
2022-12-24T22:18:08.388Z,8.40
2022-12-24T22:20:37.333Z,8.42
2022-12-24T22:23:05.939Z,8.38
2022-12-24T22:25:35.019Z,8.42
2022-12-24T22:28:03.902Z,8.42
2022-12-24T22:30:32.651Z,8.40
2022-12-24T22:33:02.738Z,8.41
2022-12-24T22:35:31.741Z,8.40
2022-12-24T22:38:00.717Z,8.41
2022-12-24T22:40:29.306Z,8.40
2022-12-24T22:42:57.798Z,8.39
2022-12-24T22:45:26.204Z,8.39
2022-12-24T22:47:54.642Z,8.39
2022-12-24T22:50:24.888Z,8.39
2022-12-24T22:52:54.121Z,8.37
2022-12-24T22:55:22.690Z,8.34
2022-12-24T22:57:51.058Z,8.37
2022-12-24T23:00:39.745Z,8.36
2022-12-24T23:03:08.845Z,8.34
2022-12-24T23:05:39.792Z,8.33
2022-12-24T23:08:08.882Z,8.30
2022-12-24T23:10:37.925Z,8.30
2022-12-24T23:13:24.104Z,8.28
2022-12-24T23:15:52.684Z,8.19
2022-12-24T23:18:21.096Z,8.23
2022-12-24T23:20:50.937Z,8.21
2022-12-24T23:23:19.502Z,8.19
2022-12-24T23:25:47.984Z,8.18
2022-12-24T23:28:16.442Z,8.07
2022-12-24T23:30:44.983Z,8.15
2022-12-24T23:33:13.491Z,8.07
2022-12-24T23:35:41.904Z,8.09
2022-12-24T23:38:11.693Z,8.03
2022-12-24T23:40:43.585Z,8.03
2022-12-24T23:43:12.126Z,7.99
2022-12-24T23:45:40.670Z,7.93
2022-12-24T23:48:09.117Z,7.92
2022-12-24T23:50:38.012Z,7.84
2022-12-24T23:53:06.466Z,7.81
2022-12-24T23:55:36.425Z,7.80
2022-12-24T23:58:05.764Z,7.77
